Time;durP1;ratioP1;P1;durP2;ratioP2;P2;SDS_P1;SDS_P2;PMS_P1;PMS_P2;Temp;Humidity;BMP_temperature;BMP_pressure;BME280_temperature;BME280_humidity;BME280_pressure;Samples;Min_cycle;Max_cycle;Signal;HPM_P1;HPM_P2
2023/12/06 00:01:36;;;;;;;50.30;19.08;;;;;;;-144.05;82.26;57073.97;5014118;28;20487;-80
2023/12/06 00:04:02;;;;;;;49.47;19.52;;;;;;;-144.05;81.96;57044.25;5013034;28;20060;-81
2023/12/06 00:06:29;;;;;;;54.83;19.98;;;;;;;-144.05;81.74;57065.47;5014126;28;20084;-80
2023/12/06 00:08:55;;;;;;;50.45;21.75;;;;;;;-144.05;81.59;57056.97;5013990;28;20509;-79
2023/12/06 00:11:21;;;;;;;49.58;20.38;;;;;;;-144.05;81.61;57048.50;5014058;28;20040;-81
2023/12/06 00:13:47;;;;;;;49.35;19.17;;;;;;;-144.05;81.68;57056.97;5013387;28;20033;-81
2023/12/06 00:16:13;;;;;;;56.78;21.15;;;;;;;-144.05;81.87;57042.13;5017708;28;20072;-81
2023/12/06 00:18:41;;;;;;;51.47;21.75;;;;;;;-144.05;81.81;57018.75;5024719;28;20064;-83
2023/12/06 00:21:08;;;;;;;45.50;19.10;;;;;;;-144.05;81.76;57067.59;5016569;28;20030;-82
2023/12/06 00:23:34;;;;;;;51.03;21.17;;;;;;;-144.05;81.82;57010.25;5014607;28;20052;-82
2023/12/06 00:26:00;;;;;;;46.05;20.38;;;;;;;-144.05;81.52;57054.88;5014565;28;20497;-82
2023/12/06 00:28:26;;;;;;;48.35;20.10;;;;;;;-144.05;82.14;57048.50;5013988;28;20076;-80
2023/12/06 00:30:53;;;;;;;53.75;22.63;;;;;;;-144.05;81.53;57054.88;5014787;28;20026;-81
2023/12/06 00:33:19;;;;;;;44.80;20.15;;;;;;;-144.05;82.12;57040.00;5015412;28;20486;-84
2023/12/06 00:35:45;;;;;;;56.42;22.83;;;;;;;-144.05;81.65;57048.50;5017148;28;20101;-83
2023/12/06 00:38:13;;;;;;;54.55;21.17;;;;;;;-144.05;82.02;57059.09;5017710;28;20030;-83
2023/12/06 00:40:39;;;;;;;60.08;24.88;;;;;;;-144.05;82.19;57088.84;5016551;28;20040;-84
2023/12/06 00:43:05;;;;;;;59.40;24.42;;;;;;;-144.05;82.11;57071.84;5009871;28;20055;-82
2023/12/06 00:45:33;;;;;;;60.35;24.20;;;;;;;-144.05;82.43;57031.50;5024105;28;20034;-81
2023/12/06 00:47:59;;;;;;;64.93;25.35;;;;;;;-144.05;82.32;57065.47;5023218;28;20037;-79
2023/12/06 00:50:25;;;;;;;61.15;24.25;;;;;;;-144.05;82.19;57033.63;5021976;28;20038;-83
2023/12/06 00:52:52;;;;;;;57.40;23.42;;;;;;;-144.05;82.33;57086.72;5022161;28;20135;-81
2023/12/06 00:55:18;;;;;;;63.03;25.85;;;;;;;-144.05;82.39;57046.38;5012452;28;20108;-80
2023/12/06 00:57:44;;;;;;;61.08;25.20;;;;;;;-144.05;81.43;57063.34;5012114;28;20034;-81
2023/12/06 01:00:11;;;;;;;54.30;24.73;;;;;;;-144.05;81.61;57056.97;5011532;28;20125;-81
2023/12/06 01:02:38;;;;;;;55.20;23.63;;;-0.50;99.90;;;-144.05;81.87;57080.34;5005218;28;20033;-80
2023/12/06 01:05:06;;;;;;;64.60;26.13;;;;;;;-144.05;81.89;57048.50;5014054;28;20025;-82
2023/12/06 01:07:32;;;;;;;69.40;28.63;;;;;;;-144.05;82.22;57035.75;5029100;28;20503;-80
2023/12/06 01:09:58;;;;;;;63.53;28.65;;;;;;;-144.05;81.99;57040.00;5012645;28;20406;-80
2023/12/06 01:12:25;;;;;;;53.97;23.63;;;;;;;-144.05;81.73;57033.63;5013564;28;20061;-81
2023/12/06 01:14:51;;;;;;;58.95;23.75;;;;;;;-144.05;81.82;57033.63;5013549;28;20030;-79
2023/12/06 01:17:17;;;;;;;60.28;26.75;;;;;;;-144.05;81.95;57082.47;5013370;28;20065;-81
2023/12/06 01:19:43;;;;;;;58.65;24.80;;;;;;;-144.05;81.99;57090.97;5012377;28;20030;-80
2023/12/06 01:22:10;;;;;;;55.10;22.73;;;;;;;-144.05;82.14;57063.34;5013833;28;20030;-81
2023/12/06 01:24:36;;;;;;;58.05;22.88;;;;;;;-144.05;82.31;57073.97;5013142;28;20036;-81
2023/12/06 01:27:03;;;;;;;49.42;22.10;;;;;;;-144.05;82.00;57059.09;5012375;28;20090;-80
2023/12/06 01:29:29;;;;;;;58.72;24.20;;;;;;;-144.05;82.37;57040.00;5012689;28;20109;-81
2023/12/06 01:31:55;;;;;;;54.20;23.73;;;;;;;-144.05;81.83;57078.22;5011521;28;20026;-81
2023/12/06 01:34:21;;;;;;;54.50;23.70;;;;;;;-144.05;81.72;57052.75;5011495;28;20391;-79
2023/12/06 01:36:48;;;;;;;52.22;21.90;;;;;;;-144.05;81.53;57067.59;5011741;28;20387;-81
2023/12/06 01:39:14;;;;;;;52.33;22.17;;;;;;;-144.05;81.39;57040.00;5012571;28;20073;-80
2023/12/06 01:41:40;;;;;;;51.63;21.55;;;;;;;-144.05;81.96;57037.88;5010444;28;20406;-81
2023/12/06 01:44:07;;;;;;;49.28;21.45;;;;;;;-144.05;82.06;57050.63;5007073;28;20061;-80
2023/12/06 01:46:33;;;;;;;55.30;21.42;;;;;;;-144.05;82.21;57056.97;5003308;28;20029;-82
2023/12/06 01:49:02;;;;;;;49.58;21.58;;;2.00;99.90;;;-144.05;81.74;57050.63;5012457;28;20498;-80
2023/12/06 01:51:30;;;;;;;50.80;20.30;;;2.20;99.90;;;-144.05;81.61;57048.50;5013074;28;20037;-81
2023/12/06 01:53:56;;;;;;;44.38;18.67;;;;;;;-144.05;81.92;57033.63;5011539;28;20026;-81
2023/12/06 01:56:23;;;;;;;48.33;20.30;;;;;;;-144.05;81.82;57061.22;5011127;28;20446;-80
2023/12/06 01:58:50;;;;;;;47.38;20.73;;;3.00;99.90;;;-144.05;81.70;57071.84;5027475;28;20034;-80
2023/12/06 02:01:17;;;;;;;45.00;20.73;;;;;;;-144.05;81.94;57073.97;5027158;28;20026;-81
2023/12/06 02:03:43;;;;;;;48.97;20.17;;;;;;;-144.05;82.11;57095.22;5012294;28;20038;-80
2023/12/06 02:06:10;;;;;;;53.08;20.77;;;;;;;-144.05;81.52;57046.38;5012475;28;20108;-79
2023/12/06 02:08:39;;;;;;;50.17;19.92;;;3.00;99.90;;;-144.05;81.62;57061.22;5011153;28;20034;-79
2023/12/06 02:11:06;;;;;;;47.88;19.83;;;;;;;-144.05;81.74;57065.47;5027397;28;20030;-79
2023/12/06 02:13:33;;;;;;;50.92;19.90;;;;;;;-144.05;82.03;57076.09;5011018;28;20049;-81
2023/12/06 02:16:00;;;;;;;49.00;18.45;;;;;;;-144.05;81.83;57042.13;5003572;28;20439;-81
2023/12/06 02:18:28;;;;;;;40.50;16.55;;;2.90;99.90;;;-144.05;81.78;57086.72;5012222;28;20022;-81
2023/12/06 02:20:58;;;;;;;39.88;16.05;;;;;;;-144.05;82.31;57059.09;5012159;28;20026;-80
2023/12/06 02:23:33;;;;;;;48.97;17.98;;;3.00;99.90;;;-144.05;81.97;57046.38;5012598;28;20042;-78
2023/12/06 02:25:59;;;;;;;43.95;17.50;;;;;;;-144.05;81.88;57082.47;5012535;28;20431;-80
2023/12/06 02:28:25;;;;;;;42.05;17.23;;;;;;;-144.05;82.16;57076.09;5011989;28;20475;-79
2023/12/06 02:30:52;;;;;;;36.85;16.17;;;;;;;-144.05;81.29;57071.84;5012451;28;20116;-81
2023/12/06 02:33:18;;;;;;;39.25;17.35;;;;;;;-144.05;81.35;57052.75;5011003;28;20064;-79
2023/12/06 02:35:57;;;;;;;40.63;16.48;;;2.50;99.90;;;-144.05;81.71;57065.47;5012272;28;20053;-82
2023/12/06 02:38:23;;;;;;;34.22;15.63;;;;;;;-144.05;81.63;57031.50;5012305;28;20065;-79
2023/12/06 02:40:54;;;;;;;41.83;16.33;;;2.20;99.90;;;-144.05;81.49;57054.88;5010624;28;20398;-78
2023/12/06 02:43:21;;;;;;;40.03;16.00;;;;;;;-144.05;81.57;57065.47;5003431;28;20046;-81
2023/12/06 02:45:47;;;;;;;38.50;17.02;;;;;;;-144.05;81.64;57086.72;5010595;28;20399;-79
2023/12/06 02:48:15;;;;;;;33.40;15.82;;;;;;;-144.05;81.22;57093.09;5012180;28;20655;-81
2023/12/06 02:50:42;;;;;;;42.55;16.77;;;;;;;-144.05;81.43;57050.63;5012028;28;20483;-81
2023/12/06 02:53:08;;;;;;;35.40;15.90;;;;;;;-144.05;81.40;57067.59;5010751;28;20105;-83
2023/12/06 02:55:34;;;;;;;40.75;18.25;;;;;;;-144.05;81.68;57069.72;5010711;28;20127;-80
2023/12/06 02:58:00;;;;;;;36.20;16.25;;;;;;;-144.05;81.38;57006.00;5010484;28;20025;-82
2023/12/06 03:00:26;;;;;;;31.20;14.77;;;;;;;-144.05;81.58;57065.47;5010309;28;20036;-81
2023/12/06 03:02:53;;;;;;;37.95;15.88;;;;;;;-144.05;81.14;57067.59;5011671;28;20051;-81
2023/12/06 03:05:19;;;;;;;33.53;14.60;;;;;;;-144.05;81.22;57054.88;5011146;28;20033;-82
2023/12/06 03:07:45;;;;;;;38.47;15.80;;;;;;;-144.05;80.81;57033.63;5012726;28;20073;-82
2023/12/06 03:10:11;;;;;;;30.92;13.30;;;;;;;-144.05;80.71;57035.75;5006200;28;20026;-80
2023/12/06 03:12:38;;;;;;;30.65;14.13;;;;;;;-144.05;81.09;57059.09;5010899;28;20030;-79
2023/12/06 03:15:05;;;;;;;34.33;15.15;;;;;;;-144.05;80.88;57080.34;5013912;28;20041;-81
2023/12/06 03:17:31;;;;;;;34.25;15.57;;;;;;;-144.05;81.19;57076.09;5015506;28;20041;-80
2023/12/06 03:19:57;;;;;;;41.47;15.45;;;;;;;-144.05;80.97;57061.22;5014129;28;20041;-80
2023/12/06 03:22:23;;;;;;;33.25;15.95;;;;;;;-144.05;80.52;57067.59;5013620;28;20372;-80
2023/12/06 03:24:49;;;;;;;33.97;15.15;;;;;;;-144.05;81.03;57071.84;5010458;28;20050;-82
2023/12/06 03:27:15;;;;;;;40.40;15.82;;;;;;;-144.05;80.59;57071.84;5010921;28;20506;-81
2023/12/06 03:29:42;;;;;;;38.30;15.48;;;;;;;-144.05;80.66;57080.34;5015013;28;20502;-81
2023/12/06 03:32:08;;;;;;;37.33;16.23;;;;;;;-144.05;81.14;57080.34;5013662;28;20029;-81
2023/12/06 03:34:34;;;;;;;35.80;16.38;;;;;;;-144.05;80.95;57082.47;5015180;28;20033;-81
2023/12/06 03:37:02;;;;;;;40.30;17.88;;;;;;;-144.05;81.05;57099.47;5014883;28;20117;-80
2023/12/06 03:39:28;;;;;;;41.60;17.05;;;;;;;-144.05;80.89;57040.00;5013329;28;20060;-80
2023/12/06 03:41:55;;;;;;;42.17;17.98;;;;;;;-144.05;80.70;57084.59;5010562;28;20034;-79
2023/12/06 03:44:21;;;;;;;43.33;18.92;;;;;;;-144.05;80.84;57046.38;5009909;28;20205;-78
2023/12/06 03:46:47;;;;;;;41.03;17.80;;;;;;;-144.05;80.47;57078.22;5015283;28;20048;-80
2023/12/06 03:49:13;;;;;;;39.97;17.25;;;;;;;-144.05;80.52;57052.75;5021641;28;20037;-79
2023/12/06 03:51:39;;;;;;;43.53;18.83;;;;;;;-144.05;80.64;57063.34;5017211;28;20398;-80
2023/12/06 03:54:06;;;;;;;42.10;16.88;;;;;;;-144.05;80.35;57080.34;5014455;28;21317;-81
2023/12/06 03:56:32;;;;;;;41.38;18.75;;;;;;;-144.05;80.02;57065.47;5014066;28;20029;-82
2023/12/06 03:58:58;;;;;;;39.60;18.73;;;;;;;-144.05;80.48;57082.47;5013756;28;20430;-80
2023/12/06 04:01:24;;;;;;;44.40;19.85;;;;;;;-144.05;80.27;57040.00;5015345;28;20025;-79
2023/12/06 04:03:51;;;;;;;41.63;17.67;;;;;;;-144.05;80.58;57048.50;5015182;28;20049;-82
2023/12/06 04:06:17;;;;;;;47.63;19.30;;;;;;;-144.05;79.81;57095.22;5013326;28;20022;-80
2023/12/06 04:08:43;;;;;;;45.42;19.80;;;;;;;-144.05;80.34;57082.47;5014704;28;20034;-80
2023/12/06 04:11:09;;;;;;;47.28;19.98;;;;;;;-144.05;80.29;57067.59;5014823;28;20030;-80
2023/12/06 04:13:35;;;;;;;51.97;20.83;;;;;;;-144.05;80.27;57101.59;5013515;28;20073;-81
2023/12/06 04:16:02;;;;;;;57.42;22.83;;;;;;;-144.05;80.14;57033.63;5014093;28;20117;-82
2023/12/06 04:18:28;;;;;;;52.30;22.65;;;;;;;-144.05;79.90;57116.47;5029843;28;20030;-82
2023/12/06 04:20:54;;;;;;;54.20;22.45;;;;;;;-144.05;79.81;57090.97;5017360;28;20119;-81
2023/12/06 04:23:20;;;;;;;51.13;22.92;;;;;;;-144.05;79.43;57107.97;5026008;28;20033;-82
2023/12/06 04:25:48;;;;;;;54.28;23.52;;;2.00;99.90;;;-144.05;79.63;57084.59;5018257;28;20099;-82
2023/12/06 04:28:14;;;;;;;58.92;23.77;;;;;;;-144.05;79.54;57093.09;5016612;28;20510;-80
2023/12/06 04:30:40;;;;;;;63.33;25.65;;;;;;;-144.05;79.74;57063.34;5016631;28;20069;-82
2023/12/06 04:33:06;;;;;;;58.30;25.65;;;;;;;-144.05;79.49;57090.97;5017340;28;20034;-81
2023/12/06 04:35:33;;;;;;;58.40;25.88;;;;;;;-144.05;79.37;57056.97;5016706;28;20038;-82
2023/12/06 04:37:59;;;;;;;53.72;23.95;;;;;;;-144.05;79.98;57078.22;5016794;28;20498;-83
2023/12/06 04:40:25;;;;;;;59.90;24.83;;;;;;;-144.05;79.38;57095.22;5017051;28;20034;-83
2023/12/06 04:42:51;;;;;;;61.72;25.15;;;;;;;-144.05;79.55;57090.97;5055535;22;20045;-82
2023/12/06 04:45:18;;;;;;;61.72;26.77;;;;;;;-144.05;79.90;57046.38;5043012;28;20029;-80
2023/12/06 04:47:44;;;;;;;69.30;29.83;;;;;;;-144.05;79.25;57016.63;5032486;28;20116;-81
2023/12/06 04:50:10;;;;;;;73.15;29.98;;;;;;;-144.05;79.85;57056.97;5059662;28;20016;-78
2023/12/06 04:52:37;;;;;;;74.00;29.08;;;;;;;-144.05;80.12;57080.34;5071446;28;20037;-79
2023/12/06 04:55:04;;;;;;;72.22;28.70;;;;;;;-144.05;79.97;57023.00;5056300;28;20573;-79
2023/12/06 04:57:30;;;;;;;74.88;29.30;;;;;;;-144.05;80.47;57061.22;5053067;28;20060;-79
2023/12/06 04:59:57;;;;;;;74.95;29.88;;;;;;;-144.05;80.03;57065.47;5048649;28;20033;-82
2023/12/06 05:02:23;;;;;;;73.88;30.52;;;;;;;-144.05;80.30;57073.97;5049089;28;20060;-79
2023/12/06 05:04:49;;;;;;;66.82;28.20;;;;;;;-144.05;80.27;57061.22;5034676;28;20120;-81
2023/12/06 05:07:15;;;;;;;74.32;31.15;;;;;;;-144.05;80.63;57071.84;5039874;28;20033;-82
2023/12/06 05:09:41;;;;;;;69.93;31.88;;;;;;;-144.05;80.36;57082.47;5031482;28;20037;-82
2023/12/06 05:12:08;;;;;;;67.03;30.70;;;;;;;-144.05;80.30;57046.38;5032710;28;20036;-81
2023/12/06 05:14:34;;;;;;;66.05;30.02;;;;;;;-144.05;80.27;57097.34;5031239;28;20548;-83
2023/12/06 05:17:00;;;;;;;73.40;32.13;;;;;;;-144.05;80.40;57078.22;5032653;28;20075;-81
2023/12/06 05:19:26;;;;;;;64.75;28.90;;;;;;;-144.05;80.05;57069.72;5047766;28;20056;-82
2023/12/06 05:21:53;;;;;;;65.53;28.95;;;;;;;-144.05;80.34;57099.47;5032395;28;20498;-80
2023/12/06 05:24:20;;;;;;;64.18;30.13;;;;;;;-144.05;80.86;57080.34;5048469;28;20058;-82
2023/12/06 05:26:46;;;;;;;68.53;29.67;;;;;;;-144.05;80.84;57076.09;5052257;28;20033;-79
2023/12/06 05:29:13;;;;;;;62.53;28.63;;;;;;;-144.05;80.54;57086.72;5052701;28;20036;-83
2023/12/06 05:31:39;;;;;;;68.05;29.27;;;;;;;-144.05;80.47;57095.22;5033832;28;20116;-82
2023/12/06 05:34:07;;;;;;;62.00;30.65;;;;;;;-144.05;80.75;57069.72;5048394;28;20558;-81
2023/12/06 05:36:33;;;;;;;73.70;31.95;;;;;;;-144.05;80.75;57073.97;5057897;28;20067;-81
2023/12/06 05:39:00;;;;;;;70.15;32.05;;;;;;;-144.05;80.04;57082.47;5052019;28;20576;-81
2023/12/06 05:41:26;;;;;;;62.42;28.77;;;;;;;-144.05;80.23;57061.22;5051467;28;20119;-81
2023/12/06 05:43:52;;;;;;;64.20;29.92;;;;;;;-144.05;80.65;57082.47;5040350;28;20033;-82
2023/12/06 05:46:18;;;;;;;71.72;30.25;;;;;;;-144.05;80.51;57029.38;5031376;28;20112;-80
2023/12/06 05:48:44;;;;;;;66.47;30.92;;;;;;;-144.05;80.09;57027.25;5047875;28;20567;-80
2023/12/06 05:51:11;;;;;;;69.03;30.63;;;;;;;-144.05;80.32;57084.59;5032289;28;20032;-82
2023/12/06 05:53:38;;;;;;;65.43;29.52;;;;;;;-144.05;80.60;57082.47;5031582;28;20064;-80
2023/12/06 05:56:06;;;;;;;66.75;31.02;;;2.30;99.90;;;-144.05;80.34;57056.97;5046657;28;20061;-83
2023/12/06 05:58:32;;;;;;;59.72;28.70;;;;;;;-144.05;80.49;57046.38;5047793;28;20029;-80
2023/12/06 06:01:00;;;;;;;62.15;29.15;;;;;;;-144.05;80.45;57046.38;5050226;28;20028;-81
2023/12/06 06:03:27;;;;;;;62.75;29.10;;;;;;;-144.05;80.59;57052.75;5051241;28;20033;-81
2023/12/06 06:05:53;;;;;;;61.97;27.90;;;;;;;-144.05;80.49;57088.84;5051532;28;20035;-79
2023/12/06 06:08:19;;;;;;;63.33;29.20;;;;;;;-144.05;80.52;57095.22;5051253;28;20458;-81
2023/12/06 06:10:45;;;;;;;81.20;36.05;;;;;;;-144.05;80.92;57054.88;5051195;28;20082;-81
2023/12/06 06:13:11;;;;;;;73.43;33.72;;;;;;;-144.05;81.09;57086.72;5050751;28;20040;-78
2023/12/06 06:15:38;;;;;;;69.38;32.28;;;;;;;-144.05;81.34;57046.38;5053380;28;20035;-81
2023/12/06 06:18:05;;;;;;;73.00;32.55;;;;;;;-144.05;81.02;57048.50;5051354;28;20410;-80
2023/12/06 06:20:33;;;;;;;71.60;34.17;;;;;;;-144.05;80.96;57071.84;5044612;28;20491;-78
2023/12/06 06:23:00;;;;;;;70.47;32.40;;;;;;;-144.05;81.29;57086.72;5053096;28;20412;-81
2023/12/06 06:25:26;;;;;;;66.50;30.30;;;;;;;-144.05;81.77;57090.97;5053041;28;20033;-81
2023/12/06 06:27:52;;;;;;;76.60;33.95;;;;;;;-144.05;81.44;57076.09;5051049;28;20525;-83
2023/12/06 06:30:18;;;;;;;74.55;31.92;;;;;;;-144.05;81.37;57063.34;5044564;28;20367;-81
2023/12/06 06:32:45;;;;;;;77.93;36.10;;;;;;;-144.05;81.39;57048.50;5031925;28;20505;-81
2023/12/06 06:35:11;;;;;;;76.28;35.85;;;;;;;-144.05;81.19;57065.47;5032918;28;20060;-81
2023/12/06 06:37:37;;;;;;;80.15;35.05;;;;;;;-144.05;81.74;57035.75;5033526;28;20038;-83
2023/12/06 06:40:07;;;;;;;81.78;34.83;;;;;;;-144.05;81.56;57033.63;5033355;28;20037;-82
2023/12/06 06:42:33;;;;;;;75.85;33.97;;;;;;;-144.05;81.53;57054.88;5032230;28;20099;-80
2023/12/06 06:44:59;;;;;;;77.47;34.50;;;;;;;-144.05;81.98;57040.00;5034398;28;20482;-83
2023/12/06 06:47:27;;;;;;;77.88;34.85;;;;;;;-144.05;81.49;57061.22;5033204;28;20030;-80
2023/12/06 06:49:54;;;;;;;83.30;35.08;;;;;;;-144.05;81.48;57082.47;5032295;28;20030;-82
2023/12/06 06:52:20;;;;;;;95.63;41.20;;;;;;;-144.05;81.72;57082.47;5032502;28;20271;-83
2023/12/06 06:54:47;;;;;;;87.22;37.45;;;;;;;-144.05;81.36;57069.72;5038348;28;20049;-81
2023/12/06 06:57:13;;;;;;;85.65;34.88;;;;;;;-144.05;81.83;57069.72;5050768;28;20033;-81
2023/12/06 06:59:39;;;;;;;80.20;35.38;;;;;;;-144.05;81.36;57061.22;5064626;28;20565;-83
2023/12/06 07:02:05;;;;;;;88.85;36.05;;;;;;;-144.05;81.54;57050.63;5051420;28;20036;-82
2023/12/06 07:04:32;;;;;;;82.20;37.42;;;;;;;-144.05;81.27;57044.25;5044876;28;20030;-82
2023/12/06 07:06:58;;;;;;;78.07;35.55;;;;;;;-144.05;81.99;57065.47;5046415;28;20543;-80
2023/12/06 07:09:24;;;;;;;81.68;33.63;;;;;;;-144.05;82.37;57056.97;5042193;28;20061;-81
2023/12/06 07:11:51;;;;;;;84.15;35.95;;;;;;;-144.05;81.62;57093.09;5052092;28;20514;-80
2023/12/06 07:14:17;;;;;;;73.68;32.28;;;;;;;-144.05;81.76;57084.59;5046496;28;20045;-82
2023/12/06 07:16:43;;;;;;;77.40;33.75;;;;;;;-144.05;81.29;57040.00;5059742;28;20036;-79
2023/12/06 07:19:10;;;;;;;69.25;32.63;;;;;;;-144.05;81.70;57073.97;5057527;28;20032;-81
2023/12/06 07:21:37;;;;;;;75.97;32.85;;;;;;;-144.05;81.55;57088.84;5054462;28;20350;-81
2023/12/06 07:24:03;;;;;;;68.82;32.55;;;;;;;-144.05;81.41;57099.47;5052690;28;20025;-82
2023/12/06 07:26:29;;;;;;;72.75;31.88;;;;;;;-144.05;81.76;57090.97;5037128;28;20033;-81
2023/12/06 07:28:56;;;;;;;74.18;31.25;;;;;;;-144.05;81.50;57071.84;5048580;28;20036;-82
2023/12/06 07:31:22;;;;;;;67.05;31.00;;;;;;;-144.05;81.62;57076.09;5057518;28;20115;-80
2023/12/06 07:33:50;;;;;;;65.60;30.52;;;;;;;-144.05;81.37;57044.25;5057801;28;20100;-80
2023/12/06 07:36:17;;;;;;;68.60;31.27;;;;;;;-144.05;81.56;57061.22;5055729;28;20029;-83
2023/12/06 07:38:43;;;;;;;68.18;30.95;;;;;;;-144.05;81.57;57027.25;5064988;28;20055;-80
2023/12/06 07:41:10;;;;;;;61.65;30.55;;;;;;;-144.05;81.28;57050.63;5076622;28;20032;-81
2023/12/06 07:43:36;;;;;;;65.05;30.42;;;;;;;-144.05;81.31;57059.09;5042333;28;20033;-81
2023/12/06 07:46:03;;;;;;;60.75;30.63;;;;;;;-144.05;81.30;57040.00;5055752;28;20037;-80
2023/12/06 07:48:29;;;;;;;65.70;29.55;;;;;;;-144.05;80.96;57031.50;5038999;28;20284;-80
2023/12/06 07:50:57;;;;;;;58.75;28.05;;;;;;;-144.05;81.51;57052.75;5035807;28;20410;-78
2023/12/06 07:53:23;;;;;;;59.40;30.20;;;;;;;-144.05;81.29;57042.13;5051810;28;20359;-80
2023/12/06 07:55:50;;;;;;;68.70;32.88;;;;;;;-144.05;81.90;57052.75;5036781;28;20037;-79
2023/12/06 07:58:17;;;;;;;64.72;32.38;;;;;;;-144.05;81.43;57052.75;5050670;28;20051;-81
2023/12/06 08:00:43;;;;;;;63.78;30.00;;;;;;;-144.05;81.07;57056.97;5050829;28;20040;-82
2023/12/06 08:03:09;;;;;;;59.88;29.52;;;;;;;-144.05;81.22;57061.22;5036409;28;20025;-82
2023/12/06 08:05:38;;;;;;;64.30;30.08;;;;;;;-144.05;81.56;57029.38;5035511;28;20104;-81
2023/12/06 08:08:05;;;;;;;56.28;27.85;;;;;;;-144.05;81.37;57090.97;5050989;28;20040;-81
2023/12/06 08:10:33;;;;;;;54.05;26.40;;;;;;;-144.05;81.55;57056.97;5037074;28;20038;-81
2023/12/06 08:13:00;;;;;;;55.50;28.23;;;;;;;-144.05;81.36;57042.13;5053883;28;20029;-81
2023/12/06 08:15:28;;;;;;;48.45;27.13;;;;;;;-144.05;80.92;57025.13;5055299;28;20025;-79
2023/12/06 08:17:56;;;;;;;51.15;26.80;;;;;;;-144.05;80.84;57050.63;5070678;28;20122;-81
2023/12/06 08:20:22;;;;;;;59.80;27.55;;;;;;;-144.05;80.92;57093.09;5070684;28;20468;-80
2023/12/06 08:22:49;;;;;;;53.15;27.67;;;;;;;-144.05;81.27;57084.59;5026759;28;20052;-82
2023/12/06 08:25:15;;;;;;;51.85;26.85;;;;;;;-144.05;81.44;57056.97;5050559;28;20029;-82
2023/12/06 08:27:41;;;;;;;56.20;28.23;;;;;;;-144.05;81.42;57027.25;5051244;28;20037;-82
2023/12/06 08:30:08;;;;;;;55.22;27.50;;;;;;;-144.05;81.03;57033.63;5028184;28;20030;-83
2023/12/06 08:32:34;;;;;;;59.35;28.58;;;;;;;-144.05;81.22;57063.34;5036219;28;20029;-82
2023/12/06 08:35:01;;;;;;;54.60;26.63;;;;;;;-144.05;80.83;57025.13;5027561;28;20029;-81
2023/12/06 08:37:27;;;;;;;52.20;26.67;;;;;;;-144.05;81.16;57003.88;5034060;28;20039;-82
2023/12/06 08:39:53;;;;;;;50.13;27.33;;;;;;;-144.05;80.98;57027.25;5050731;28;20041;-80
2023/12/06 08:42:20;;;;;;;47.33;24.48;;;;;;;-144.05;80.55;57067.59;5035209;28;20029;-85
2023/12/06 08:44:46;;;;;;;49.88;26.17;;;;;;;-144.05;80.92;57033.63;5051672;28;20028;-82
2023/12/06 08:47:13;;;;;;;48.78;26.08;;;;;;;-144.05;80.79;57042.13;5036765;28;20033;-82
2023/12/06 08:49:39;;;;;;;51.22;25.70;;;;;;;-144.05;81.04;57093.09;5036312;28;20033;-82
2023/12/06 08:52:07;;;;;;;50.55;25.95;;;3.10;99.90;;;-144.05;81.61;57063.34;5043461;28;20022;-81
2023/12/06 08:54:34;;;;;;;51.95;26.23;;;2.20;99.90;;;-144.05;81.64;57044.25;5036498;28;20033;-81
2023/12/06 08:57:01;;;;;;;48.97;25.73;;;;;;;-144.05;81.74;57054.88;5036012;28;20034;-84
2023/12/06 08:59:29;;;;;;;55.72;28.90;;;;;;;-144.05;81.62;57010.25;5050561;28;20033;-81
2023/12/06 09:01:55;;;;;;;51.25;26.80;;;;;;;-144.05;81.38;57044.25;5033785;28;20266;-80
2023/12/06 09:04:22;;;;;;;51.08;26.00;;;;;;;-144.05;81.23;57044.25;5050321;28;20290;-83
2023/12/06 09:06:48;;;;;;;53.97;26.25;;;;;;;-144.05;81.24;57033.63;5037377;28;20035;-82
2023/12/06 09:09:18;;;;;;;49.95;26.27;;;;;;;-144.05;81.47;57046.38;5055787;28;20033;-81
2023/12/06 09:11:46;;;;;;;47.47;24.23;;;;;;;-144.05;81.57;57042.13;5035348;28;20033;-80
2023/12/06 09:14:12;;;;;;;61.20;29.88;;;;;;;-144.05;81.33;57097.34;5034491;28;20029;-79
2023/12/06 09:16:41;;;;;;;50.70;26.13;;;;;;;-144.05;81.97;57029.38;5033540;28;20087;-82
2023/12/06 09:19:07;;;;;;;51.00;24.55;;;;;;;-144.05;82.01;57054.88;5029688;28;20037;-84
2023/12/06 09:21:47;;;;;;;54.33;26.35;;;2.80;99.90;;;-144.05;81.70;57061.22;5035313;28;20426;-82
2023/12/06 09:24:14;;;;;;;55.60;27.75;;;;;;;-144.05;81.71;57056.97;5034955;28;20105;-82
2023/12/06 09:26:41;;;;;;;60.00;30.43;;;2.70;99.90;;;-144.05;81.52;57035.75;5032550;28;20471;-82
2023/12/06 09:29:10;;;;;;;53.78;25.73;;;3.50;99.90;;;-144.05;81.73;57027.25;5044840;28;20052;-80
2023/12/06 09:31:37;;;;;;;52.65;26.25;;;4.00;99.90;;;-144.05;81.52;57069.72;5060320;28;20056;-81
2023/12/06 09:34:06;;;;;;;55.50;26.52;;;;;;;-144.05;81.39;57052.75;5054991;28;20066;-81
2023/12/06 09:36:33;;;;;;;48.97;24.27;;;;;;;-144.05;81.52;57031.50;5055151;28;20035;-81
2023/12/06 09:39:00;;;;;;;45.30;24.02;;;;;;;-144.05;81.32;57063.34;5040046;28;20029;-82
2023/12/06 09:41:31;;;;;;;50.45;23.50;;;;;;;-144.05;81.34;57048.50;5035212;28;20025;-80
2023/12/06 09:44:02;;;;;;;49.22;24.73;;;;;;;-144.05;81.52;57016.63;5031379;28;20054;-82
2023/12/06 09:46:28;;;;;;;48.03;25.08;;;;;;;-144.05;81.32;57046.38;5048987;28;20073;-83
2023/12/06 09:48:55;;;;;;;49.72;25.40;;;;;;;-144.05;80.87;57061.22;5042495;28;20040;-84
2023/12/06 09:51:22;;;;;;;49.75;25.35;;;;;;;-144.05;81.08;57071.84;5037852;28;20088;-83
2023/12/06 09:53:49;;;;;;;45.50;25.23;;;;;;;-144.05;81.25;57054.88;5038192;28;20029;-79
2023/12/06 09:56:16;;;;;;;45.05;25.60;;;;;;;-144.05;81.14;57063.34;5046701;28;20390;-81
2023/12/06 09:58:43;;;;;;;47.13;25.75;;;;;;;-144.05;80.82;57076.09;5051880;28;20508;-79
2023/12/06 10:01:11;;;;;;;46.47;24.48;;;;;;;-144.05;81.50;57031.50;5051929;28;20039;-81
2023/12/06 10:03:40;;;;;;;43.50;23.63;;;4.30;99.90;;;-144.05;81.31;57063.34;5045981;28;20032;-82
2023/12/06 10:06:07;;;;;;;45.78;23.08;;;;;;;-144.05;80.91;57044.25;5053831;28;20033;-78
2023/12/06 10:08:34;;;;;;;45.05;24.45;;;;;;;-144.05;81.28;57042.13;5055432;28;20032;-80
2023/12/06 10:11:12;;;;;;;42.30;22.90;;;3.90;99.90;;;-144.05;81.69;57063.34;5056646;28;20083;-82
2023/12/06 10:13:41;;;;;;;41.88;22.80;;;3.00;99.90;;;-144.05;80.94;57054.88;5054608;28;20051;-81
2023/12/06 10:16:20;;;;;;;41.38;22.40;;;4.00;99.90;;;-144.05;81.25;57069.72;5055189;28;20036;-80
2023/12/06 10:18:49;;;;;;;41.95;23.58;;;2.90;99.90;;;-144.05;81.50;57054.88;5054936;28;20029;-81
2023/12/06 10:21:19;;;;;;;43.13;22.08;;;;;;;-144.05;81.29;57044.25;5048303;28;20026;-82
2023/12/06 10:23:57;;;;;;;42.08;23.17;;;;;;;-144.05;81.34;57001.75;5070123;28;20031;-79
2023/12/06 10:26:30;;;;;;;39.90;22.15;;;3.00;99.90;;;-144.05;81.70;57044.25;5054230;28;20131;-81
2023/12/06 10:28:56;;;;;;;42.83;23.95;;;;;;;-144.05;81.22;57012.38;5055705;28;20029;-80
2023/12/06 10:31:22;;;;;;;39.72;22.70;;;;;;;-144.05;81.17;57040.00;5066040;28;20029;-80
2023/12/06 10:33:57;;;;;;;40.65;23.08;;;1.50;99.90;;;-144.05;81.75;57044.25;5058649;28;20037;-81
2023/12/06 10:36:26;;;;;;;37.90;22.02;;;3.80;99.90;;;-144.05;81.49;57056.97;5040335;28;20029;-79
2023/12/06 10:38:57;;;;;;;40.00;22.38;;;4.40;99.90;;;-144.05;81.02;57025.13;5037190;28;20049;-80
2023/12/06 10:41:26;;;;;;;43.35;22.02;;;3.50;99.90;;;-144.05;81.29;57027.25;5037224;28;20034;-80
2023/12/06 10:43:56;;;;;;;37.13;22.67;;;3.50;99.90;;;-144.05;81.19;57073.97;5040330;28;20063;-83
2023/12/06 10:46:24;;;;;;;43.15;23.83;;;4.40;99.90;;;-144.05;81.79;57027.25;5054098;28;20033;-81
2023/12/06 10:48:54;;;;;;;34.90;20.60;;;4.20;99.90;;;-144.05;81.02;57050.63;5053810;28;20033;-82
2023/12/06 10:51:21;;;;;;;35.70;20.38;;;4.30;99.90;;;-144.05;81.05;57044.25;5055370;28;20045;-82
2023/12/06 10:53:48;;;;;;;38.97;22.33;;;;;;;-144.05;80.73;57035.75;5055018;28;20116;-80